createdAt,value
2022-12-26T00:01:02.419Z,7.30
2022-12-26T00:06:05.411Z,6.50
2022-12-26T00:11:07.927Z,6.20
2022-12-26T00:16:16.045Z,6.00
2022-12-26T00:21:19.637Z,6.00
2022-12-26T00:26:25.794Z,6.00
2022-12-26T00:31:32.085Z,6.00
2022-12-26T00:36:34.724Z,6.00
2022-12-26T00:41:37.379Z,6.00
2022-12-26T00:46:40.048Z,6.10
2022-12-26T00:51:42.646Z,6.10
2022-12-26T00:56:45.091Z,6.10
2022-12-26T01:01:47.754Z,6.10
2022-12-26T01:06:50.441Z,6.10
2022-12-26T01:11:52.964Z,6.10
2022-12-26T01:16:58.284Z,6.10
2022-12-26T01:22:00.961Z,6.10
2022-12-26T01:27:04.719Z,6.10
2022-12-26T01:32:07.303Z,6.10
2022-12-26T01:37:12.988Z,6.10
2022-12-26T01:42:18.218Z,6.10
2022-12-26T01:47:22.345Z,6.10
2022-12-26T01:52:39.885Z,6.10
2022-12-26T01:57:46.561Z,6.10
2022-12-26T02:03:08.097Z,6.00
2022-12-26T02:08:19.801Z,6.00
2022-12-26T02:13:22.505Z,6.00
2022-12-26T02:18:25.069Z,6.00
2022-12-26T02:23:46.082Z,6.00
2022-12-26T02:29:09.882Z,6.00
2022-12-26T02:34:15.816Z,6.00
2022-12-26T02:39:46.574Z,6.10
2022-12-26T02:45:27.800Z,6.10
2022-12-26T02:52:10.140Z,6.10
2022-12-26T02:57:37.842Z,6.10
2022-12-26T03:03:20.629Z,6.20
2022-12-26T03:09:11.486Z,6.30
2022-12-26T03:14:26.977Z,6.30
2022-12-26T03:19:32.717Z,6.30
2022-12-26T03:24:55.232Z,6.30
2022-12-26T03:30:16.565Z,6.40
2022-12-26T03:35:20.561Z,6.40
2022-12-26T03:40:55.243Z,6.50
2022-12-26T03:46:49.766Z,6.50
2022-12-26T03:52:25.592Z,6.50
2022-12-26T03:57:54.544Z,6.60
2022-12-26T04:03:23.920Z,6.60
2022-12-26T04:09:01.510Z,6.70
2022-12-26T04:14:30.282Z,6.80
2022-12-26T04:20:20.018Z,6.80
2022-12-26T04:25:51.504Z,6.80
2022-12-26T04:31:21.297Z,6.80
2022-12-26T04:36:51.740Z,6.80
2022-12-26T04:42:15.772Z,6.80
2022-12-26T04:47:18.283Z,6.90
2022-12-26T04:52:20.796Z,6.90
2022-12-26T04:57:23.326Z,6.90
2022-12-26T05:02:55.338Z,6.80
2022-12-26T05:08:17.074Z,6.90
2022-12-26T05:13:19.615Z,6.90
2022-12-26T05:18:40.604Z,6.90
2022-12-26T05:24:01.678Z,6.90
2022-12-26T05:29:04.669Z,6.90
2022-12-26T05:34:12.243Z,7.00
2022-12-26T05:39:14.958Z,7.00
2022-12-26T05:44:17.974Z,7.00
2022-12-26T05:49:20.561Z,7.00
2022-12-26T05:54:23.123Z,7.10
2022-12-26T05:59:25.682Z,7.10
2022-12-26T06:04:30.143Z,7.10
2022-12-26T06:09:32.804Z,7.10
2022-12-26T06:14:35.364Z,7.10
2022-12-26T06:19:43.058Z,7.10
2022-12-26T06:24:49.171Z,7.10
2022-12-26T06:29:51.658Z,7.10
2022-12-26T06:34:54.135Z,7.10
2022-12-26T06:39:56.654Z,7.20
2022-12-26T06:44:59.188Z,7.10
2022-12-26T06:50:01.709Z,7.10
2022-12-26T06:55:05.037Z,7.20
2022-12-26T07:00:08.440Z,7.20
2022-12-26T07:05:11.407Z,7.20
2022-12-26T07:10:14.063Z,7.30
2022-12-26T07:15:16.640Z,7.20
2022-12-26T07:20:19.192Z,7.20
2022-12-26T07:25:21.744Z,7.30
2022-12-26T07:30:24.328Z,7.40
2022-12-26T07:35:28.528Z,7.50
2022-12-26T07:40:31.069Z,7.50
2022-12-26T07:45:33.723Z,7.50
2022-12-26T07:50:36.253Z,7.60
2022-12-26T07:55:41.967Z,7.60
2022-12-26T08:00:44.551Z,7.60
2022-12-26T08:05:49.147Z,7.70
2022-12-26T08:11:02.667Z,7.60
2022-12-26T08:16:12.779Z,7.50
2022-12-26T08:21:15.498Z,7.40
2022-12-26T08:26:22.633Z,7.30
2022-12-26T08:36:32.954Z,7.30
2022-12-26T08:41:35.592Z,7.40
2022-12-26T08:46:39.105Z,7.50
2022-12-26T08:51:42.015Z,7.60
2022-12-26T08:56:44.637Z,7.80
2022-12-26T09:01:47.522Z,7.90
2022-12-26T09:06:50.119Z,8.90
2022-12-26T09:11:54.964Z,9.20
2022-12-26T09:16:57.589Z,9.50
2022-12-26T09:22:18.908Z,9.80
2022-12-26T09:27:21.444Z,10.50
2022-12-26T09:32:23.888Z,11.10
2022-12-26T09:37:26.468Z,11.30
2022-12-26T09:42:35.279Z,11.60
2022-12-26T09:48:19.666Z,12.30
2022-12-26T09:53:36.201Z,12.40
2022-12-26T09:58:52.373Z,12.80
2022-12-26T10:03:57.273Z,12.60
2022-12-26T10:09:09.152Z,12.20
2022-12-26T10:14:36.223Z,12.10
2022-12-26T10:19:53.169Z,12.50
2022-12-26T10:24:58.550Z,12.30
2022-12-26T10:30:10.163Z,12.00
2022-12-26T10:35:42.133Z,11.80
2022-12-26T10:40:46.973Z,11.50
2022-12-26T10:46:18.683Z,11.60
2022-12-26T10:51:21.442Z,11.70
2022-12-26T10:56:26.228Z,12.40
2022-12-26T11:01:28.875Z,12.70
2022-12-26T11:06:42.907Z,12.50
2022-12-26T11:11:51.759Z,12.50
2022-12-26T11:16:55.836Z,12.70
2022-12-26T11:22:27.677Z,12.50
2022-12-26T11:27:30.220Z,12.10
2022-12-26T11:32:32.983Z,11.70
2022-12-26T11:37:42.839Z,11.60
2022-12-26T11:42:57.136Z,11.70
2022-12-26T11:48:01.131Z,11.70
2022-12-26T11:53:05.899Z,12.30
2022-12-26T11:58:22.941Z,12.50
2022-12-26T12:03:45.293Z,12.90
2022-12-26T12:09:14.607Z,13.30
2022-12-26T12:14:23.157Z,13.00
2022-12-26T12:20:01.047Z,13.30
2022-12-26T12:25:21.758Z,12.40
2022-12-26T12:30:35.508Z,11.90
2022-12-26T12:35:52.152Z,11.80
2022-12-26T12:41:15.861Z,11.50
2022-12-26T12:46:27.414Z,11.30
2022-12-26T12:52:02.269Z,11.30
2022-12-26T12:57:38.684Z,11.40
2022-12-26T13:03:10.446Z,12.80
2022-12-26T13:08:22.466Z,13.30
2022-12-26T13:13:37.645Z,13.80
2022-12-26T13:18:48.166Z,14.20
2022-12-26T13:24:20.363Z,14.00
2022-12-26T13:29:32.502Z,13.70
2022-12-26T13:34:36.307Z,13.30
2022-12-26T13:39:40.253Z,13.20
2022-12-26T13:44:43.023Z,13.00
2022-12-26T13:49:46.377Z,12.60
2022-12-26T13:54:48.871Z,12.70
2022-12-26T14:00:00.418Z,13.00
2022-12-26T14:05:14.977Z,13.10
2022-12-26T14:10:22.256Z,12.50
2022-12-26T14:15:30.579Z,13.00
2022-12-26T14:21:14.398Z,13.10
2022-12-26T14:26:39.924Z,13.10
2022-12-26T14:31:57.957Z,12.60
2022-12-26T14:37:27.666Z,13.10
2022-12-26T14:42:49.839Z,13.10
2022-12-26T14:48:02.561Z,13.20
2022-12-26T14:53:23.042Z,13.00
2022-12-26T14:58:51.454Z,11.80
2022-12-26T15:04:14.141Z,11.00
2022-12-26T15:09:41.576Z,11.60
2022-12-26T15:15:08.716Z,12.00
2022-12-26T15:20:20.103Z,12.50
2022-12-26T15:25:37.322Z,12.70
2022-12-26T15:31:02.887Z,12.50
2022-12-26T15:36:46.988Z,12.60
2022-12-26T15:42:01.645Z,12.60
2022-12-26T15:47:26.033Z,12.50
2022-12-26T15:52:59.891Z,12.30
2022-12-26T15:58:37.355Z,12.30
2022-12-26T16:03:53.774Z,12.00
2022-12-26T16:09:15.217Z,10.70
2022-12-26T16:14:30.215Z,10.10
2022-12-26T16:19:32.848Z,9.80
2022-12-26T16:24:38.503Z,9.50
2022-12-26T16:29:48.213Z,9.30
2022-12-26T16:34:50.951Z,9.00
2022-12-26T16:40:07.303Z,8.90
2022-12-26T16:45:20.416Z,8.90
2022-12-26T16:50:26.255Z,9.00
2022-12-26T16:55:32.142Z,9.00
2022-12-26T17:00:34.847Z,9.00
2022-12-26T17:05:43.891Z,9.10
2022-12-26T17:10:48.884Z,9.00
2022-12-26T17:15:57.797Z,9.10
2022-12-26T17:21:17.133Z,9.00
2022-12-26T17:26:26.117Z,8.90
2022-12-26T17:31:43.879Z,8.80
2022-12-26T17:37:17.682Z,8.80
2022-12-26T17:42:13.569Z,8.70
2022-12-26T17:47:25.389Z,8.90
2022-12-26T17:52:29.398Z,8.60
2022-12-26T17:57:32.156Z,8.50
2022-12-26T18:02:34.877Z,8.80
2022-12-26T18:07:37.852Z,9.20
2022-12-26T18:12:40.341Z,9.30
2022-12-26T18:17:43.522Z,9.00
2022-12-26T18:22:47.829Z,9.00
2022-12-26T18:27:50.995Z,9.00
2022-12-26T18:32:54.347Z,9.00
2022-12-26T18:37:56.870Z,8.80
2022-12-26T18:43:00.045Z,8.40
2022-12-26T18:48:03.187Z,8.10
2022-12-26T18:53:05.815Z,7.90
2022-12-26T18:58:08.492Z,7.80
2022-12-26T19:03:10.984Z,7.90
2022-12-26T19:08:13.555Z,8.00
2022-12-26T19:13:16.303Z,8.10
2022-12-26T19:18:18.868Z,8.10
2022-12-26T19:23:21.374Z,8.10
2022-12-26T19:28:23.911Z,8.10
2022-12-26T19:33:26.448Z,8.10
2022-12-26T19:38:29.145Z,8.20
2022-12-26T19:43:32.045Z,8.20
2022-12-26T19:48:35.831Z,8.20
2022-12-26T19:53:39.182Z,8.20
2022-12-26T19:58:42.438Z,8.30
2022-12-26T20:03:45.636Z,8.30
2022-12-26T20:08:49.694Z,8.40
2022-12-26T20:13:52.560Z,8.80
2022-12-26T20:18:56.001Z,9.50
2022-12-26T20:24:00.113Z,9.60
2022-12-26T20:29:02.750Z,10.90
2022-12-26T20:34:06.110Z,10.50
2022-12-26T20:39:12.984Z,10.40
2022-12-26T20:44:16.465Z,10.90
2022-12-26T20:49:19.084Z,10.10
2022-12-26T20:54:22.753Z,9.80
2022-12-26T20:59:25.273Z,9.70
2022-12-26T21:04:27.701Z,10.10
2022-12-26T21:09:30.256Z,10.20
2022-12-26T21:14:32.886Z,10.60
2022-12-26T21:19:35.591Z,10.90
2022-12-26T21:24:38.171Z,11.30
2022-12-26T21:29:40.808Z,10.80
2022-12-26T21:34:43.345Z,11.10
2022-12-26T21:39:47.228Z,10.60
2022-12-26T21:44:49.775Z,9.90
2022-12-26T21:49:52.548Z,9.20
2022-12-26T21:55:13.504Z,8.70
2022-12-26T22:00:16.183Z,9.20
2022-12-26T22:05:20.433Z,10.00
2022-12-26T22:10:43.397Z,9.70
2022-12-26T22:16:14.288Z,9.80
2022-12-26T22:21:21.085Z,10.10
2022-12-26T22:26:24.225Z,10.00
2022-12-26T22:31:32.281Z,10.30
2022-12-26T22:36:41.328Z,9.90
2022-12-26T22:41:45.801Z,9.80
2022-12-26T22:46:51.275Z,9.60
2022-12-26T22:51:57.121Z,11.80
2022-12-26T22:56:59.699Z,10.90
2022-12-26T23:02:02.371Z,9.80
2022-12-26T23:07:05.284Z,9.30
2022-12-26T23:12:29.153Z,9.10
2022-12-26T23:17:53.252Z,8.90
2022-12-26T23:22:56.431Z,8.40
2022-12-26T23:28:17.529Z,8.20
2022-12-26T23:33:19.991Z,8.10
2022-12-26T23:38:22.551Z,7.80
2022-12-26T23:43:25.082Z,7.70
2022-12-26T23:48:28.028Z,7.50
2022-12-26T23:53:30.673Z,7.30
2022-12-26T23:58:33.223Z,7.20
